sensor_id;sensor_type;location;lat;lon;timestamp;pressure;altitude;pressure_sealevel;temperature;humidity
24160;BME280;62385;41.594;23.808;2023-02-14T00:01:54;96810.97;;;-1.59;64.88
24160;BME280;62385;41.594;23.808;2023-02-14T00:04:19;96818.81;;;-1.60;65.31
24160;BME280;62385;41.594;23.808;2023-02-14T00:06:45;96812.19;;;-1.47;64.86
24160;BME280;62385;41.594;23.808;2023-02-14T00:09:14;96807.38;;;-1.56;64.87
24160;BME280;62385;41.594;23.808;2023-02-14T00:11:40;96814.03;;;-1.49;64.52
24160;BME280;62385;41.594;23.808;2023-02-14T00:14:07;96812.94;;;-1.65;64.60
24160;BME280;62385;41.594;23.808;2023-02-14T00:16:53;96817.00;;;-1.58;64.91
24160;BME280;62385;41.594;23.808;2023-02-14T00:19:20;96819.22;;;-1.49;64.38
24160;BME280;62385;41.594;23.808;2023-02-14T00:21:46;96804.31;;;-1.66;65.06
24160;BME280;62385;41.594;23.808;2023-02-14T00:24:15;96807.13;;;-1.70;64.92
24160;BME280;62385;41.594;23.808;2023-02-14T00:26:41;96795.88;;;-1.32;64.49
24160;BME280;62385;41.594;23.808;2023-02-14T00:29:09;96798.66;;;-1.55;64.71
24160;BME280;62385;41.594;23.808;2023-02-14T00:31:36;96795.84;;;-1.51;64.93
24160;BME280;62385;41.594;23.808;2023-02-14T00:34:02;96797.56;;;-1.70;65.63
24160;BME280;62385;41.594;23.808;2023-02-14T00:36:28;96790.38;;;-1.65;64.68
24160;BME280;62385;41.594;23.808;2023-02-14T00:38:54;96783.88;;;-1.75;65.02
24160;BME280;62385;41.594;23.808;2023-02-14T00:41:20;96785.63;;;-1.55;64.86
24160;BME280;62385;41.594;23.808;2023-02-14T00:43:46;96778.81;;;-1.58;65.03
24160;BME280;62385;41.594;23.808;2023-02-14T00:46:14;96783.16;;;-1.58;64.72
24160;BME280;62385;41.594;23.808;2023-02-14T00:48:40;96782.13;;;-1.74;65.03
24160;BME280;62385;41.594;23.808;2023-02-14T00:51:06;96778.06;;;-1.61;64.72
24160;BME280;62385;41.594;23.808;2023-02-14T00:53:32;96771.38;;;-1.87;65.40
24160;BME280;62385;41.594;23.808;2023-02-14T00:55:57;96768.50;;;-2.01;65.86
24160;BME280;62385;41.594;23.808;2023-02-14T00:58:23;96774.94;;;-2.10;66.09
24160;BME280;62385;41.594;23.808;2023-02-14T01:00:48;96768.00;;;-2.31;66.91
24160;BME280;62385;41.594;23.808;2023-02-14T01:03:14;96760.31;;;-2.34;67.34
24160;BME280;62385;41.594;23.808;2023-02-14T01:05:40;96767.09;;;-2.30;67.37
24160;BME280;62385;41.594;23.808;2023-02-14T01:08:06;96759.69;;;-2.19;67.42
24160;BME280;62385;41.594;23.808;2023-02-14T01:10:32;96757.16;;;-2.20;67.24
24160;BME280;62385;41.594;23.808;2023-02-14T01:12:58;96748.44;;;-2.19;66.96
24160;BME280;62385;41.594;23.808;2023-02-14T01:15:23;96738.78;;;-2.16;67.04
24160;BME280;62385;41.594;23.808;2023-02-14T01:17:49;96747.84;;;-2.26;67.38
24160;BME280;62385;41.594;23.808;2023-02-14T01:20:33;96746.81;;;-2.22;66.61
24160;BME280;62385;41.594;23.808;2023-02-14T01:22:59;96728.38;;;-2.16;66.44
24160;BME280;62385;41.594;23.808;2023-02-14T01:25:25;96732.25;;;-2.26;66.20
24160;BME280;62385;41.594;23.808;2023-02-14T01:27:51;96738.31;;;-2.25;66.67
24160;BME280;62385;41.594;23.808;2023-02-14T01:30:17;96744.09;;;-2.19;66.68
24160;BME280;62385;41.594;23.808;2023-02-14T01:32:43;96737.13;;;-2.18;66.38
24160;BME280;62385;41.594;23.808;2023-02-14T01:35:10;96730.66;;;-2.08;66.32
24160;BME280;62385;41.594;23.808;2023-02-14T01:37:35;96733.16;;;-2.27;66.30
24160;BME280;62385;41.594;23.808;2023-02-14T01:40:02;96733.94;;;-2.25;66.80
24160;BME280;62385;41.594;23.808;2023-02-14T01:42:28;96735.66;;;-2.04;67.13
24160;BME280;62385;41.594;23.808;2023-02-14T01:45:21;96743.38;;;-2.02;66.18
24160;BME280;62385;41.594;23.808;2023-02-14T01:47:53;96746.69;;;-2.19;66.94
24160;BME280;62385;41.594;23.808;2023-02-14T01:50:24;96749.06;;;-1.93;66.16
24160;BME280;62385;41.594;23.808;2023-02-14T01:52:57;96753.88;;;-2.04;65.86
24160;BME280;62385;41.594;23.808;2023-02-14T01:55:29;96760.25;;;-1.91;65.71
24160;BME280;62385;41.594;23.808;2023-02-14T01:58:08;96758.63;;;-1.73;65.96
24160;BME280;62385;41.594;23.808;2023-02-14T02:00:36;96753.16;;;-1.67;64.84
24160;BME280;62385;41.594;23.808;2023-02-14T02:04:28;96749.56;;;-2.05;65.97
24160;BME280;62385;41.594;23.808;2023-02-14T02:06:40;96744.09;;;-2.19;66.09
24160;BME280;62385;41.594;23.808;2023-02-14T02:11:39;96741.34;;;-2.80;67.17
24160;BME280;62385;41.594;23.808;2023-02-14T02:14:12;96741.22;;;-2.76;67.91
24160;BME280;62385;41.594;23.808;2023-02-14T02:28:00;96716.94;;;-2.75;67.64
24160;BME280;62385;41.594;23.808;2023-02-14T02:30:55;96716.25;;;-2.81;67.79
24160;BME280;62385;41.594;23.808;2023-02-14T02:33:41;96720.69;;;-2.83;67.29
24160;BME280;62385;41.594;23.808;2023-02-14T02:36:50;96723.53;;;-2.67;67.31
24160;BME280;62385;41.594;23.808;2023-02-14T02:44:47;96712.31;;;-2.69;67.30
24160;BME280;62385;41.594;23.808;2023-02-14T02:50:36;96723.91;;;-2.34;66.61
24160;BME280;62385;41.594;23.808;2023-02-14T02:53:16;96719.97;;;-2.86;68.17
24160;BME280;62385;41.594;23.808;2023-02-14T02:56:02;96717.44;;;-2.66;67.13
24160;BME280;62385;41.594;23.808;2023-02-14T03:01:23;96715.22;;;-2.33;67.04
24160;BME280;62385;41.594;23.808;2023-02-14T03:04:06;96715.59;;;-2.64;67.65
24160;BME280;62385;41.594;23.808;2023-02-14T03:06:51;96713.44;;;-2.53;67.48
24160;BME280;62385;41.594;23.808;2023-02-14T03:20:51;96702.97;;;-2.31;67.20
24160;BME280;62385;41.594;23.808;2023-02-14T03:23:28;96694.41;;;-1.93;66.77
24160;BME280;62385;41.594;23.808;2023-02-14T03:31:23;96701.03;;;-2.26;66.93
24160;BME280;62385;41.594;23.808;2023-02-14T03:34:14;96699.13;;;-2.43;67.40
24160;BME280;62385;41.594;23.808;2023-02-14T03:36:54;96704.16;;;-2.18;66.80
24160;BME280;62385;41.594;23.808;2023-02-14T03:39:38;96706.13;;;-1.82;65.86
24160;BME280;62385;41.594;23.808;2023-02-14T03:42:25;96704.31;;;-2.01;66.20
24160;BME280;62385;41.594;23.808;2023-02-14T03:44:53;96703.53;;;-1.82;66.09
24160;BME280;62385;41.594;23.808;2023-02-14T03:47:23;96707.78;;;-1.61;65.40
24160;BME280;62385;41.594;23.808;2023-02-14T03:49:59;96699.31;;;-1.46;65.47
24160;BME280;62385;41.594;23.808;2023-02-14T03:52:28;96706.38;;;-1.29;64.81
24160;BME280;62385;41.594;23.808;2023-02-14T03:54:56;96708.47;;;-1.37;65.26
24160;BME280;62385;41.594;23.808;2023-02-14T03:57:50;96714.28;;;-1.51;66.22
24160;BME280;62385;41.594;23.808;2023-02-14T04:00:15;96714.22;;;-1.31;65.15
24160;BME280;62385;41.594;23.808;2023-02-14T04:02:53;96709.66;;;-1.26;64.43
24160;BME280;62385;41.594;23.808;2023-02-14T04:05:25;96711.03;;;-1.95;67.18
24160;BME280;62385;41.594;23.808;2023-02-14T04:07:55;96715.66;;;-1.63;66.47
24160;BME280;62385;41.594;23.808;2023-02-14T04:10:21;96715.69;;;-2.03;68.07
24160;BME280;62385;41.594;23.808;2023-02-14T04:12:48;96704.88;;;-2.14;68.11
24160;BME280;62385;41.594;23.808;2023-02-14T04:15:14;96690.41;;;-2.20;67.83
24160;BME280;62385;41.594;23.808;2023-02-14T04:17:40;96685.47;;;-2.48;69.02
24160;BME280;62385;41.594;23.808;2023-02-14T04:20:25;96681.66;;;-2.39;68.67
24160;BME280;62385;41.594;23.808;2023-02-14T04:22:51;96671.22;;;-2.59;69.31
24160;BME280;62385;41.594;23.808;2023-02-14T04:25:20;96675.94;;;-2.47;68.60
24160;BME280;62385;41.594;23.808;2023-02-14T04:27:46;96696.16;;;-2.75;69.63
24160;BME280;62385;41.594;23.808;2023-02-14T04:30:12;96693.56;;;-2.75;69.91
24160;BME280;62385;41.594;23.808;2023-02-14T04:32:39;96676.19;;;-2.53;68.81
24160;BME280;62385;41.594;23.808;2023-02-14T04:35:06;96675.06;;;-2.48;69.28
24160;BME280;62385;41.594;23.808;2023-02-14T04:37:32;96678.88;;;-2.35;68.34
24160;BME280;62385;41.594;23.808;2023-02-14T04:39:58;96667.50;;;-2.12;67.57
24160;BME280;62385;41.594;23.808;2023-02-14T04:42:23;96657.22;;;-2.15;67.60
24160;BME280;62385;41.594;23.808;2023-02-14T04:44:50;96666.50;;;-2.50;68.46
24160;BME280;62385;41.594;23.808;2023-02-14T04:47:16;96671.25;;;-2.19;67.46
24160;BME280;62385;41.594;23.808;2023-02-14T04:49:41;96675.94;;;-2.47;67.98
24160;BME280;62385;41.594;23.808;2023-02-14T04:52:07;96677.16;;;-2.36;67.81
24160;BME280;62385;41.594;23.808;2023-02-14T04:54:33;96678.88;;;-2.35;67.51
24160;BME280;62385;41.594;23.808;2023-02-14T04:56:58;96686.63;;;-2.13;66.81
24160;BME280;62385;41.594;23.808;2023-02-14T04:59:24;96690.44;;;-1.81;65.94
24160;BME280;62385;41.594;23.808;2023-02-14T05:01:50;96680.50;;;-2.12;67.29
24160;BME280;62385;41.594;23.808;2023-02-14T05:04:16;96678.16;;;-2.18;67.49
24160;BME280;62385;41.594;23.808;2023-02-14T05:06:41;96666.06;;;-2.19;68.06
24160;BME280;62385;41.594;23.808;2023-02-14T05:09:07;96663.41;;;-2.38;68.74
24160;BME280;62385;41.594;23.808;2023-02-14T05:11:33;96663.66;;;-3.07;69.52
24160;BME280;62385;41.594;23.808;2023-02-14T05:14:00;96668.94;;;-3.10;69.63
24160;BME280;62385;41.594;23.808;2023-02-14T05:16:26;96676.50;;;-3.04;69.18
24160;BME280;62385;41.594;23.808;2023-02-14T05:18:51;96664.50;;;-3.07;69.67
24160;BME280;62385;41.594;23.808;2023-02-14T05:21:17;96659.06;;;-3.01;68.79
24160;BME280;62385;41.594;23.808;2023-02-14T05:23:42;96673.69;;;-2.98;69.10
24160;BME280;62385;41.594;23.808;2023-02-14T05:26:08;96671.84;;;-3.18;69.47
24160;BME280;62385;41.594;23.808;2023-02-14T05:28:34;96660.22;;;-2.86;68.89
24160;BME280;62385;41.594;23.808;2023-02-14T05:31:00;96651.63;;;-3.10;68.58
24160;BME280;62385;41.594;23.808;2023-02-14T05:33:26;96649.56;;;-3.23;69.59
24160;BME280;62385;41.594;23.808;2023-02-14T05:35:51;96650.69;;;-3.31;68.78
24160;BME280;62385;41.594;23.808;2023-02-14T05:38:18;96643.66;;;-2.84;68.02
24160;BME280;62385;41.594;23.808;2023-02-14T05:40:44;96634.94;;;-2.83;67.95
24160;BME280;62385;41.594;23.808;2023-02-14T05:43:10;96638.88;;;-2.52;67.14
24160;BME280;62385;41.594;23.808;2023-02-14T05:45:36;96645.00;;;-2.33;66.27
24160;BME280;62385;41.594;23.808;2023-02-14T05:48:02;96650.56;;;-2.62;67.35
24160;BME280;62385;41.594;23.808;2023-02-14T05:50:28;96639.81;;;-2.33;67.05
24160;BME280;62385;41.594;23.808;2023-02-14T05:52:54;96638.91;;;-2.32;66.41
24160;BME280;62385;41.594;23.808;2023-02-14T05:55:20;96650.91;;;-2.29;66.67
24160;BME280;62385;41.594;23.808;2023-02-14T05:57:45;96648.47;;;-2.74;67.45
24160;BME280;62385;41.594;23.808;2023-02-14T06:00:11;96651.44;;;-2.42;66.76
24160;BME280;62385;41.594;23.808;2023-02-14T06:02:37;96652.59;;;-2.08;65.92
24160;BME280;62385;41.594;23.808;2023-02-14T06:05:03;96658.72;;;-2.09;67.11
24160;BME280;62385;41.594;23.808;2023-02-14T06:07:29;96654.91;;;-1.82;66.65
24160;BME280;62385;41.594;23.808;2023-02-14T06:09:55;96663.94;;;-1.70;66.42
24160;BME280;62385;41.594;23.808;2023-02-14T06:12:20;96655.63;;;-1.78;66.94
24160;BME280;62385;41.594;23.808;2023-02-14T06:14:46;96663.81;;;-1.67;66.54
24160;BME280;62385;41.594;23.808;2023-02-14T06:17:11;96675.28;;;-1.53;65.68
24160;BME280;62385;41.594;23.808;2023-02-14T06:19:37;96661.69;;;-1.59;66.33
24160;BME280;62385;41.594;23.808;2023-02-14T06:22:03;96656.56;;;-1.61;66.58
24160;BME280;62385;41.594;23.808;2023-02-14T06:24:28;96660.16;;;-1.63;66.40
24160;BME280;62385;41.594;23.808;2023-02-14T06:26:54;96657.91;;;-1.52;66.24
24160;BME280;62385;41.594;23.808;2023-02-14T06:29:20;96637.91;;;-1.70;66.83
24160;BME280;62385;41.594;23.808;2023-02-14T06:31:46;96635.94;;;-1.65;66.16
24160;BME280;62385;41.594;23.808;2023-02-14T06:34:11;96640.25;;;-1.46;66.04
24160;BME280;62385;41.594;23.808;2023-02-14T06:36:37;96632.06;;;-1.75;67.38
24160;BME280;62385;41.594;23.808;2023-02-14T06:39:03;96629.84;;;-1.46;66.61
24160;BME280;62385;41.594;23.808;2023-02-14T06:41:28;96625.66;;;-1.31;66.08
24160;BME280;62385;41.594;23.808;2023-02-14T06:43:54;96620.03;;;-1.22;66.01
24160;BME280;62385;41.594;23.808;2023-02-14T06:46:20;96620.94;;;-0.87;64.68
24160;BME280;62385;41.594;23.808;2023-02-14T06:48:46;96613.25;;;-1.07;65.62
24160;BME280;62385;41.594;23.808;2023-02-14T06:51:12;96598.44;;;-0.88;65.02
24160;BME280;62385;41.594;23.808;2023-02-14T06:53:37;96596.53;;;-0.67;64.71
24160;BME280;62385;41.594;23.808;2023-02-14T06:56:03;96598.66;;;-0.41;64.37
24160;BME280;62385;41.594;23.808;2023-02-14T06:58:30;96598.53;;;-0.55;64.91
24160;BME280;62385;41.594;23.808;2023-02-14T07:00:57;96598.91;;;-0.28;64.39
24160;BME280;62385;41.594;23.808;2023-02-14T07:03:23;96591.25;;;0.02;64.42
24160;BME280;62385;41.594;23.808;2023-02-14T07:05:50;96596.50;;;-0.16;65.10
24160;BME280;62385;41.594;23.808;2023-02-14T07:08:16;96581.47;;;-0.11;64.70
24160;BME280;62385;41.594;23.808;2023-02-14T07:10:41;96589.16;;;-0.25;65.60
24160;BME280;62385;41.594;23.808;2023-02-14T07:13:07;96585.56;;;-0.22;66.04
24160;BME280;62385;41.594;23.808;2023-02-14T07:15:34;96585.44;;;-0.04;65.28
24160;BME280;62385;41.594;23.808;2023-02-14T07:17:59;96592.63;;;0.09;64.35
24160;BME280;62385;41.594;23.808;2023-02-14T07:20:25;96591.00;;;-0.10;65.28
24160;BME280;62385;41.594;23.808;2023-02-14T07:22:51;96582.47;;;0.20;64.62
24160;BME280;62385;41.594;23.808;2023-02-14T07:25:17;96586.63;;;0.24;64.30
24160;BME280;62385;41.594;23.808;2023-02-14T07:27:42;96586.47;;;0.58;63.73
24160;BME280;62385;41.594;23.808;2023-02-14T07:30:18;96587.03;;;0.32;65.18
24160;BME280;62385;41.594;23.808;2023-02-14T07:32:44;96576.38;;;0.52;63.89
24160;BME280;62385;41.594;23.808;2023-02-14T07:35:10;96570.53;;;0.47;64.33
24160;BME280;62385;41.594;23.808;2023-02-14T07:37:45;96569.09;;;0.41;64.92
24160;BME280;62385;41.594;23.808;2023-02-14T07:40:33;96559.84;;;0.67;64.90
24160;BME280;62385;41.594;23.808;2023-02-14T07:43:10;96557.31;;;0.50;64.24
24160;BME280;62385;41.594;23.808;2023-02-14T07:45:39;96545.88;;;1.14;62.30
24160;BME280;62385;41.594;23.808;2023-02-14T07:48:07;96541.81;;;1.24;62.42
24160;BME280;62385;41.594;23.808;2023-02-14T07:50:33;96539.03;;;1.41;61.73
24160;BME280;62385;41.594;23.808;2023-02-14T07:52:58;96532.88;;;1.28;62.76
24160;BME280;62385;41.594;23.808;2023-02-14T07:55:25;96528.16;;;1.19;62.84
24160;BME280;62385;41.594;23.808;2023-02-14T07:57:51;96529.56;;;1.24;62.49
24160;BME280;62385;41.594;23.808;2023-02-14T08:00:17;96521.81;;;1.67;61.10
24160;BME280;62385;41.594;23.808;2023-02-14T08:02:43;96506.97;;;1.81;60.09
24160;BME280;62385;41.594;23.808;2023-02-14T08:05:09;96508.34;;;2.15;59.27
24160;BME280;62385;41.594;23.808;2023-02-14T08:07:34;96504.34;;;2.10;59.73
24160;BME280;62385;41.594;23.808;2023-02-14T08:10:00;96497.84;;;2.44;58.75
24160;BME280;62385;41.594;23.808;2023-02-14T08:12:26;96495.91;;;2.33;59.05
24160;BME280;62385;41.594;23.808;2023-02-14T08:15:10;96489.38;;;2.26;59.77
24160;BME280;62385;41.594;23.808;2023-02-14T08:17:57;96488.31;;;2.28;59.30
24160;BME280;62385;41.594;23.808;2023-02-14T08:20:22;96490.34;;;2.11;59.08
24160;BME280;62385;41.594;23.808;2023-02-14T08:22:48;96485.97;;;2.52;58.25
24160;BME280;62385;41.594;23.808;2023-02-14T08:25:14;96486.97;;;2.50;57.92
24160;BME280;62385;41.594;23.808;2023-02-14T08:27:39;96475.31;;;2.68;57.92
24160;BME280;62385;41.594;23.808;2023-02-14T08:30:05;96481.59;;;2.65;58.10
24160;BME280;62385;41.594;23.808;2023-02-14T08:32:31;96467.34;;;2.69;58.30
24160;BME280;62385;41.594;23.808;2023-02-14T08:34:56;96456.56;;;3.01;57.22
24160;BME280;62385;41.594;23.808;2023-02-14T08:37:22;96458.59;;;2.83;58.91
24160;BME280;62385;41.594;23.808;2023-02-14T08:39:47;96446.72;;;2.77;58.93
24160;BME280;62385;41.594;23.808;2023-02-14T08:42:13;96458.66;;;3.08;58.69
24160;BME280;62385;41.594;23.808;2023-02-14T08:44:38;96448.41;;;3.18;56.87
24160;BME280;62385;41.594;23.808;2023-02-14T08:47:04;96450.75;;;3.48;55.81
24160;BME280;62385;41.594;23.808;2023-02-14T08:49:30;96453.78;;;3.42;55.47
24160;BME280;62385;41.594;23.808;2023-02-14T08:51:55;96446.97;;;3.39;55.68
24160;BME280;62385;41.594;23.808;2023-02-14T08:54:21;96446.53;;;3.45;55.68
24160;BME280;62385;41.594;23.808;2023-02-14T08:56:46;96441.06;;;3.48;55.07
24160;BME280;62385;41.594;23.808;2023-02-14T08:59:12;96440.97;;;3.50;54.88
24160;BME280;62385;41.594;23.808;2023-02-14T09:01:38;96443.06;;;3.45;54.53
24160;BME280;62385;41.594;23.808;2023-02-14T09:04:04;96445.63;;;3.59;54.38
24160;BME280;62385;41.594;23.808;2023-02-14T09:06:29;96443.06;;;3.95;53.37
24160;BME280;62385;41.594;23.808;2023-02-14T09:08:55;96435.41;;;3.80;53.07
24160;BME280;62385;41.594;23.808;2023-02-14T09:11:23;96438.31;;;4.13;52.43
24160;BME280;62385;41.594;23.808;2023-02-14T09:13:50;96435.13;;;4.21;52.40
24160;BME280;62385;41.594;23.808;2023-02-14T09:16:18;96441.69;;;3.64;52.97
24160;BME280;62385;41.594;23.808;2023-02-14T09:18:45;96447.34;;;4.22;52.13
24160;BME280;62385;41.594;23.808;2023-02-14T09:21:16;96448.88;;;4.60;51.01
24160;BME280;62385;41.594;23.808;2023-02-14T09:23:42;96442.69;;;4.61;51.36
24160;BME280;62385;41.594;23.808;2023-02-14T09:26:10;96437.75;;;4.81;51.11
24160;BME280;62385;41.594;23.808;2023-02-14T09:28:38;96436.81;;;4.82;50.35
24160;BME280;62385;41.594;23.808;2023-02-14T09:31:16;96431.22;;;4.86;50.77
24160;BME280;62385;41.594;23.808;2023-02-14T09:33:43;96421.69;;;4.96;50.99
24160;BME280;62385;41.594;23.808;2023-02-14T09:36:09;96419.47;;;5.14;50.66
24160;BME280;62385;41.594;23.808;2023-02-14T09:38:41;96413.06;;;5.29;50.00
24160;BME280;62385;41.594;23.808;2023-02-14T09:41:08;96425.22;;;5.19;50.20
24160;BME280;62385;41.594;23.808;2023-02-14T09:46:16;96410.81;;;5.47;49.42
24160;BME280;62385;41.594;23.808;2023-02-14T09:48:45;96418.41;;;5.63;50.15
24160;BME280;62385;41.594;23.808;2023-02-14T09:51:19;96401.88;;;5.83;48.70
24160;BME280;62385;41.594;23.808;2023-02-14T09:53:50;96399.13;;;5.62;49.82
24160;BME280;62385;41.594;23.808;2023-02-14T09:59:18;96380.25;;;5.90;47.81
24160;BME280;62385;41.594;23.808;2023-02-14T10:01:52;96378.44;;;6.02;47.90
24160;BME280;62385;41.594;23.808;2023-02-14T10:04:50;96361.88;;;6.22;47.81
24160;BME280;62385;41.594;23.808;2023-02-14T10:10:24;96345.03;;;6.45;46.88
24160;BME280;62385;41.594;23.808;2023-02-14T10:13:00;96338.25;;;6.64;45.52
24160;BME280;62385;41.594;23.808;2023-02-14T10:15:33;96326.84;;;6.95;46.29
24160;BME280;62385;41.594;23.808;2023-02-14T10:20:45;96328.19;;;6.89;45.57
24160;BME280;62385;41.594;23.808;2023-02-14T10:23:34;96323.38;;;7.15;45.06
24160;BME280;62385;41.594;23.808;2023-02-14T10:26:25;96308.94;;;7.19;45.12
24160;BME280;62385;41.594;23.808;2023-02-14T10:28:53;96303.13;;;7.05;45.29
24160;BME280;62385;41.594;23.808;2023-02-14T10:31:38;96295.28;;;7.14;44.74
24160;BME280;62385;41.594;23.808;2023-02-14T10:36:50;96290.16;;;7.43;43.85
24160;BME280;62385;41.594;23.808;2023-02-14T10:45:18;96283.75;;;7.46;43.66
24160;BME280;62385;41.594;23.808;2023-02-14T10:50:51;96277.78;;;7.74;42.76
24160;BME280;62385;41.594;23.808;2023-02-14T10:58:37;96259.25;;;7.34;41.95
24160;BME280;62385;41.594;23.808;2023-02-14T11:01:08;96262.63;;;7.85;41.34
24160;BME280;62385;41.594;23.808;2023-02-14T11:03:37;96261.59;;;7.67;40.82
24160;BME280;62385;41.594;23.808;2023-02-14T11:06:03;96254.09;;;8.41;40.44
24160;BME280;62385;41.594;23.808;2023-02-14T11:08:37;96245.47;;;8.58;40.27
24160;BME280;62385;41.594;23.808;2023-02-14T11:13:38;96227.38;;;8.34;39.15
24160;BME280;62385;41.594;23.808;2023-02-14T11:16:09;96216.91;;;8.62;39.21
24160;BME280;62385;41.594;23.808;2023-02-14T11:18:40;96220.00;;;8.67;38.26
24160;BME280;62385;41.594;23.808;2023-02-14T11:21:15;96224.84;;;8.62;38.57
24160;BME280;62385;41.594;23.808;2023-02-14T11:23:46;96211.31;;;8.84;38.78
24160;BME280;62385;41.594;23.808;2023-02-14T11:26:20;96209.97;;;8.61;39.23
24160;BME280;62385;41.594;23.808;2023-02-14T11:29:02;96204.66;;;8.80;38.06
24160;BME280;62385;41.594;23.808;2023-02-14T11:31:36;96197.91;;;9.05;37.23
24160;BME280;62385;41.594;23.808;2023-02-14T11:34:04;96193.09;;;8.71;39.51
24160;BME280;62385;41.594;23.808;2023-02-14T11:36:39;96182.56;;;8.99;38.92
24160;BME280;62385;41.594;23.808;2023-02-14T11:39:17;96194.22;;;9.15;38.67
24160;BME280;62385;41.594;23.808;2023-02-14T11:41:52;96182.56;;;8.99;39.10
24160;BME280;62385;41.594;23.808;2023-02-14T11:44:21;96187.78;;;9.27;37.20
24160;BME280;62385;41.594;23.808;2023-02-14T11:46:49;96171.31;;;9.24;37.70
24160;BME280;62385;41.594;23.808;2023-02-14T11:51:53;96164.31;;;9.33;37.67
24160;BME280;62385;41.594;23.808;2023-02-14T11:54:39;96154.25;;;9.09;37.55
24160;BME280;62385;41.594;23.808;2023-02-14T11:59:38;96149.09;;;9.07;37.29
24160;BME280;62385;41.594;23.808;2023-02-14T12:02:20;96148.25;;;9.44;35.95
24160;BME280;62385;41.594;23.808;2023-02-14T12:04:48;96144.03;;;9.51;36.51
24160;BME280;62385;41.594;23.808;2023-02-14T12:07:20;96133.75;;;9.38;34.28
24160;BME280;62385;41.594;23.808;2023-02-14T12:10:05;96123.31;;;9.37;34.52
24160;BME280;62385;41.594;23.808;2023-02-14T12:12:33;96125.44;;;9.23;34.92
24160;BME280;62385;41.594;23.808;2023-02-14T12:15:38;96116.31;;;9.63;34.44
24160;BME280;62385;41.594;23.808;2023-02-14T12:24:22;96107.75;;;9.69;34.07
24160;BME280;62385;41.594;23.808;2023-02-14T12:26:53;96109.31;;;9.44;35.98
24160;BME280;62385;41.594;23.808;2023-02-14T12:29:31;96101.28;;;10.16;33.45
24160;BME280;62385;41.594;23.808;2023-02-14T12:32:20;96100.19;;;9.74;33.87
24160;BME280;62385;41.594;23.808;2023-02-14T12:34:47;96102.31;;;10.41;33.20
24160;BME280;62385;41.594;23.808;2023-02-14T12:40:11;96084.88;;;10.39;34.20
24160;BME280;62385;41.594;23.808;2023-02-14T13:05:12;96068.00;;;10.04;33.07
24160;BME280;62385;41.594;23.808;2023-02-14T13:10:22;96057.59;;;10.11;34.53
24160;BME280;62385;41.594;23.808;2023-02-14T13:15:53;96063.16;;;10.17;34.76
24160;BME280;62385;41.594;23.808;2023-02-14T13:18:48;96060.50;;;10.17;34.51
24160;BME280;62385;41.594;23.808;2023-02-14T13:21:21;96059.72;;;10.25;35.76
24160;BME280;62385;41.594;23.808;2023-02-14T13:23:53;96050.19;;;10.40;34.43
24160;BME280;62385;41.594;23.808;2023-02-14T13:26:28;96043.22;;;10.99;33.24
24160;BME280;62385;41.594;23.808;2023-02-14T13:29:06;96053.91;;;10.47;34.09
24160;BME280;62385;41.594;23.808;2023-02-14T13:31:34;96054.03;;;10.02;35.33
24160;BME280;62385;41.594;23.808;2023-02-14T13:36:48;96044.88;;;10.92;33.33
24160;BME280;62385;41.594;23.808;2023-02-14T13:39:26;96051.84;;;10.15;34.20
24160;BME280;62385;41.594;23.808;2023-02-14T13:41:54;96033.91;;;10.61;33.14
24160;BME280;62385;41.594;23.808;2023-02-14T13:44:42;96046.41;;;11.02;32.40
24160;BME280;62385;41.594;23.808;2023-02-14T13:47:34;96042.09;;;11.01;32.47
24160;BME280;62385;41.594;23.808;2023-02-14T13:50:01;96035.97;;;10.75;33.45
24160;BME280;62385;41.594;23.808;2023-02-14T13:55:07;96039.94;;;10.71;32.83
24160;BME280;62385;41.594;23.808;2023-02-14T13:57:35;96033.16;;;10.43;33.46
24160;BME280;62385;41.594;23.808;2023-02-14T14:02:46;96021.84;;;10.15;34.62
24160;BME280;62385;41.594;23.808;2023-02-14T14:19:00;96039.50;;;10.50;33.73
24160;BME280;62385;41.594;23.808;2023-02-14T14:21:27;96043.53;;;10.62;34.51
24160;BME280;62385;41.594;23.808;2023-02-14T14:24:14;96052.81;;;10.58;33.74
24160;BME280;62385;41.594;23.808;2023-02-14T14:29:39;96047.34;;;10.59;33.24
24160;BME280;62385;41.594;23.808;2023-02-14T14:32:16;96050.44;;;10.47;33.44
24160;BME280;62385;41.594;23.808;2023-02-14T14:34:49;96058.59;;;9.92;35.28
24160;BME280;62385;41.594;23.808;2023-02-14T14:37:18;96063.19;;;10.08;35.77
24160;BME280;62385;41.594;23.808;2023-02-14T14:39:50;96071.63;;;10.03;36.90
24160;BME280;62385;41.594;23.808;2023-02-14T14:42:16;96061.31;;;10.00;36.52
24160;BME280;62385;41.594;23.808;2023-02-14T14:44:46;96059.81;;;9.98;37.50
24160;BME280;62385;41.594;23.808;2023-02-14T14:47:18;96067.97;;;9.69;37.48
24160;BME280;62385;41.594;23.808;2023-02-14T14:49:46;96070.97;;;10.01;37.47
24160;BME280;62385;41.594;23.808;2023-02-14T14:52:32;96064.28;;;9.97;37.65
24160;BME280;62385;41.594;23.808;2023-02-14T14:55:00;96068.38;;;9.74;38.54
24160;BME280;62385;41.594;23.808;2023-02-14T14:57:26;96067.09;;;9.96;37.11
24160;BME280;62385;41.594;23.808;2023-02-14T15:02:57;96071.03;;;9.56;38.65
24160;BME280;62385;41.594;23.808;2023-02-14T15:05:27;96062.69;;;9.51;39.41
24160;BME280;62385;41.594;23.808;2023-02-14T15:07:53;96067.75;;;9.45;39.15
24160;BME280;62385;41.594;23.808;2023-02-14T15:10:27;96075.34;;;9.40;39.38
24160;BME280;62385;41.594;23.808;2023-02-14T15:12:57;96078.66;;;8.87;39.79
24160;BME280;62385;41.594;23.808;2023-02-14T15:15:47;96088.69;;;8.84;40.09
24160;BME280;62385;41.594;23.808;2023-02-14T15:18:15;96089.25;;;8.87;39.71
24160;BME280;62385;41.594;23.808;2023-02-14T15:20:42;96088.19;;;8.70;40.24
24160;BME280;62385;41.594;23.808;2023-02-14T15:23:19;96085.19;;;8.56;40.60
24160;BME280;62385;41.594;23.808;2023-02-14T15:25:46;96093.69;;;8.50;40.58
24160;BME280;62385;41.594;23.808;2023-02-14T15:28:33;96090.47;;;8.56;40.66
24160;BME280;62385;41.594;23.808;2023-02-14T15:31:06;96086.91;;;8.09;41.14
24160;BME280;62385;41.594;23.808;2023-02-14T15:33:32;96088.88;;;7.97;41.36
24160;BME280;62385;41.594;23.808;2023-02-14T15:36:03;96093.47;;;7.85;41.61